Time;durP1;ratioP1;P1;durP2;ratioP2;P2;SDS_P1;SDS_P2;PMS_P1;PMS_P2;Temp;Humidity;BMP_temperature;BMP_pressure;BME280_temperature;BME280_humidity;BME280_pressure;Samples;Min_cycle;Max_cycle;Signal;HPM_P1;HPM_P2
2023/05/13 00:00:01;;;;;;;;;;;11.80;99.90;;;;;;4987795;28;20205;-77
2023/05/13 00:02:28;;;;;;;;;;;11.80;99.90;;;;;;4984230;28;19933;-76
2023/05/13 00:04:55;;;;;;;;;;;11.80;99.90;;;;;;4974054;28;19934;-77
2023/05/13 00:07:21;;;;;;;;;;;11.80;99.90;;;;;;4984952;28;19926;-77
2023/05/13 00:09:50;;;;;;;;;;;11.80;99.90;;;;;;4986671;28;19932;-76
2023/05/13 00:12:18;;;;;;;;;;;11.80;99.90;;;;;;4986182;28;19973;-77
2023/05/13 00:14:45;;;;;;;;;;;11.80;99.90;;;;;;4964999;28;19958;-76
2023/05/13 00:17:11;;;;;;;;;;;11.80;99.90;;;;;;4982155;28;19926;-76
2023/05/13 00:19:38;;;;;;;;;;;11.80;99.90;;;;;;4969971;28;20313;-77
2023/05/13 00:22:05;;;;;;;;;;;11.70;99.90;;;;;;4977038;28;19929;-77
2023/05/13 00:24:32;;;;;;;;;;;11.70;99.90;;;;;;4966061;28;19956;-77
2023/05/13 00:27:00;;;;;;;;;;;11.70;99.90;;;;;;4970474;28;19997;-76
2023/05/13 00:29:27;;;;;;;;;;;11.70;99.90;;;;;;4973231;28;19973;-76
2023/05/13 00:31:54;;;;;;;;;;;11.70;99.90;;;;;;4956695;28;20024;-76
2023/05/13 00:34:21;;;;;;;;;;;11.70;99.90;;;;;;4966934;28;19944;-77
2023/05/13 00:36:47;;;;;;;;;;;11.70;99.90;;;;;;4970414;28;19925;-77
2023/05/13 00:39:14;;;;;;;;;;;11.70;99.90;;;;;;4983051;28;19934;-76
2023/05/13 00:41:41;;;;;;;;;;;11.70;99.90;;;;;;4972191;28;20025;-77
2023/05/13 00:44:09;;;;;;;;;;;11.70;99.90;;;;;;4987749;28;19988;-77
2023/05/13 00:46:36;;;;;;;;;;;11.70;99.90;;;;;;4973233;28;20658;-75
2023/05/13 00:49:04;;;;;;;;;;;11.70;99.90;;;;;;4983433;28;19984;-76
2023/05/13 00:51:31;;;;;;;;;;;11.60;99.90;;;;;;4983152;28;20009;-77
2023/05/13 00:53:58;;;;;;;;;;;11.60;99.90;;;;;;4987545;28;19930;-76
2023/05/13 00:56:25;;;;;;;;;;;11.60;99.90;;;;;;4963357;28;20068;-76
2023/05/13 00:58:52;;;;;;;;;;;11.60;99.90;;;;;;4968470;28;20563;-77
2023/05/13 01:01:24;;;;;;;;;;;11.60;99.90;;;;;;4981536;28;19968;-77
2023/05/13 01:03:55;;;;;;;;;;;11.60;99.90;;;;;;4958767;28;19980;-76
2023/05/13 01:06:26;;;;;;;;;;;11.60;99.90;;;;;;4983211;28;19929;-77
2023/05/13 01:08:57;;;;;;;;;;;11.60;99.90;;;;;;4954733;28;19929;-77
2023/05/13 01:11:25;;;;;;;;;;;11.60;99.90;;;;;;4959056;28;20043;-77
2023/05/13 01:14:01;;;;;;;;;;;11.60;99.90;;;;;;4966599;28;19925;-77
2023/05/13 01:16:31;;;;;;;;;;;11.60;99.90;;;;;;4963152;28;19934;-77
2023/05/13 01:19:00;;;;;;;;;;;11.60;99.90;;;;;;4968772;28;19933;-76
2023/05/13 01:21:28;;;;;;;;;;;11.50;99.90;;;;;;4979618;28;19948;-76
2023/05/13 01:23:55;;;;;;;;;;;11.50;99.90;;;;;;4967655;28;20307;-77
2023/05/13 01:26:24;;;;;;;;;;;11.50;99.90;;;;;;4966201;28;19926;-76
2023/05/13 01:28:51;;;;;;;;;;;11.50;99.90;;;;;;4968481;28;19926;-76
2023/05/13 01:31:19;;;;;;;;;;;11.50;99.90;;;;;;4961355;28;19988;-77
2023/05/13 01:33:46;;;;;;;;;;;11.50;99.90;;;;;;4987626;28;20063;-77
2023/05/13 01:36:14;;;;;;;;;;;11.50;99.90;;;;;;4985721;28;20550;-77
2023/05/13 01:38:43;;;;;;;;;;;11.50;99.90;;;;;;4962892;28;19927;-76
2023/05/13 01:41:10;;;;;;;;;;;11.50;99.90;;;;;;4966860;28;19930;-77
2023/05/13 01:43:37;;;;;;;;;;;11.50;99.90;;;;;;4970323;28;20408;-76
2023/05/13 01:46:11;;;;;;;;;;;11.50;99.90;;;;;;4984039;28;19926;-76
2023/05/13 01:48:38;;;;;;;;;;;11.50;99.90;;;;;;4965940;28;19933;-77
2023/05/13 01:51:05;;;;;;;;;;;11.50;99.90;;;;;;4971277;28;20073;-76
2023/05/13 01:53:32;;;;;;;;;;;11.50;99.90;;;;;;4965666;28;19944;-77
2023/05/13 01:56:00;;;;;;;;;;;11.50;99.90;;;;;;4969938;28;20435;-76
2023/05/13 01:58:27;;;;;;;;;;;11.40;99.90;;;;;;4978308;28;19960;-76
2023/05/13 02:00:54;;;;;;;;;;;11.40;99.90;;;;;;4981779;28;19948;-77
2023/05/13 02:03:21;;;;;;;;;;;11.40;99.90;;;;;;4966102;28;19938;-76
2023/05/13 02:05:48;;;;;;;;;;;11.40;99.90;;;;;;4972461;28;19965;-77
2023/05/13 02:08:15;;;;;;;;;;;11.40;99.90;;;;;;4975552;28;20041;-76
2023/05/13 02:10:42;;;;;;;;;;;11.40;99.90;;;;;;4966695;28;19941;-77
2023/05/13 02:13:10;;;;;;;;;;;11.40;99.90;;;;;;4967295;28;20067;-77
2023/05/13 02:15:38;;;;;;;;;;;11.40;99.90;;;;;;4968179;28;20315;-77
2023/05/13 02:18:05;;;;;;;;;;;11.40;99.90;;;;;;4971137;28;20643;-77
2023/05/13 02:20:32;;;;;;;;;;;11.40;99.90;;;;;;4976176;28;19933;-76
2023/05/13 02:22:59;;;;;;;;;;;11.40;99.90;;;;;;4968662;28;20312;-76
2023/05/13 02:25:27;;;;;;;;;;;11.40;99.90;;;;;;4966035;28;19925;-77
2023/05/13 02:27:54;;;;;;;;;;;11.30;99.90;;;;;;4986030;28;19926;-77
2023/05/13 02:30:25;;;;;;;;;;;11.30;99.90;;;;;;4969538;28;20418;-77
2023/05/13 02:32:52;;;;;;;;;;;11.30;99.90;;;;;;4985101;28;19925;-76
2023/05/13 02:35:21;;;;;;;;;;;11.30;99.90;;;;;;4970067;28;19940;-77
2023/05/13 02:37:50;;;;;;;;;;;11.30;99.90;;;;;;4971695;28;20536;-76
2023/05/13 02:40:17;;;;;;;;;;;11.30;99.90;;;;;;4967893;28;19969;-76
2023/05/13 02:42:46;;;;;;;;;;;11.30;99.90;;;;;;4967711;28;19932;-77
2023/05/13 02:45:14;;;;;;;;;;;11.30;99.90;;;;;;4961306;28;19961;-77
2023/05/13 02:47:46;;;;;;;;;;;11.30;99.90;;;;;;4965786;28;19925;-77
2023/05/13 02:50:13;;;;;;;;;;;11.30;99.90;;;;;;4966721;28;20443;-77
2023/05/13 02:52:41;;;;;;;;;;;11.30;99.90;;;;;;4974321;28;19963;-76
2023/05/13 02:55:08;;;;;;;;;;;11.30;99.90;;;;;;4970594;28;19933;-77
2023/05/13 02:57:37;;;;;;;;;;;11.30;99.90;;;;;;4974824;28;20303;-76
2023/05/13 03:00:04;;;;;;;;;;;11.30;99.90;;;;;;4969229;28;19926;-77
2023/05/13 03:02:31;;;;;;;;;;;11.20;99.90;;;;;;4988352;28;19929;-77
2023/05/13 03:05:00;;;;;;;;;;;11.30;99.90;;;;;;4985877;28;19925;-76
2023/05/13 03:07:27;;;;;;;;;;;11.20;99.90;;;;;;4974295;28;19932;-77
2023/05/13 03:09:53;;;;;;;;;;;11.20;99.90;;;;;;4975193;28;19984;-77
2023/05/13 03:12:20;;;;;;;;;;;11.20;99.90;;;;;;4987128;28;19930;-77
2023/05/13 03:14:48;;;;;;;;;;;11.20;99.90;;;;;;4973797;28;19933;-76
2023/05/13 03:17:15;;;;;;;;;;;11.20;99.90;;;;;;4973097;28;20475;-77
2023/05/13 03:19:42;;;;;;;;;;;11.20;99.90;;;;;;4985764;28;19933;-76
2023/05/13 03:22:11;;;;;;;;;;;11.20;99.90;;;;;;4969006;28;19933;-77
2023/05/13 03:24:38;;;;;;;;;;;11.20;99.90;;;;;;4972444;28;19925;-77
2023/05/13 03:27:05;;;;;;;;;;;11.20;99.90;;;;;;4972330;28;19926;-76
2023/05/13 03:29:32;;;;;;;;;;;11.20;99.90;;;;;;4968247;28;19953;-77
2023/05/13 03:31:59;;;;;;;;;;;11.20;99.90;;;;;;4970131;28;20324;-76
2023/05/13 03:34:26;;;;;;;;;;;11.20;99.90;;;;;;4972623;28;19933;-77
2023/05/13 03:36:53;;;;;;;;;;;11.20;99.90;;;;;;4968258;28;19926;-77
2023/05/13 03:39:21;;;;;;;;;;;11.20;99.90;;;;;;4970304;28;19930;-77
2023/05/13 03:41:48;;;;;;;;;;;11.10;99.90;;;;;;4971234;28;19957;-76
2023/05/13 03:44:15;;;;;;;;;;;11.10;99.90;;;;;;4974191;28;19933;-76
2023/05/13 03:46:43;;;;;;;;;;;11.10;99.90;;;;;;4989144;28;20304;-77
2023/05/13 03:49:10;;;;;;;;;;;11.10;99.90;;;;;;4976711;28;20387;-76
2023/05/13 03:51:36;;;;;;;;;;;11.10;99.90;;;;;;4971770;28;19932;-75
2023/05/13 03:54:04;;;;;;;;;;;11.10;99.90;;;;;;4970193;28;20420;-77
2023/05/13 03:56:32;;;;;;;;;;;11.10;99.90;;;;;;4984248;28;19937;-77
2023/05/13 03:58:59;;;;;;;;;;;11.10;99.90;;;;;;4970774;28;19930;-77
2023/05/13 04:01:26;;;;;;;;;;;11.10;99.90;;;;;;4985421;28;19981;-76
2023/05/13 04:03:53;;;;;;;;;;;11.10;99.90;;;;;;4970447;28;19965;-77
2023/05/13 04:06:20;;;;;;;;;;;11.10;99.90;;;;;;4971578;28;19977;-77
2023/05/13 04:08:48;;;;;;;;;;;11.10;99.90;;;;;;4970816;28;21576;-77
2023/05/13 04:11:16;;;;;;;;;;;11.00;99.90;;;;;;4966530;28;19934;-76
2023/05/13 04:13:44;;;;;;;;;;;11.10;99.90;;;;;;4967173;28;20647;-77
2023/05/13 04:16:11;;;;;;;;;;;11.10;99.90;;;;;;4987337;28;19925;-76
2023/05/13 04:18:38;;;;;;;;;;;11.10;99.90;;;;;;4986902;28;19965;-77
2023/05/13 04:21:08;;;;;;;;;;;11.10;99.90;;;;;;4970329;28;20025;-76
2023/05/13 04:23:35;;;;;;;;;;;11.10;99.90;;;;;;4987141;28;19926;-77
2023/05/13 04:26:02;;;;;;;;;;;11.00;99.90;;;;;;4972050;28;20304;-76
2023/05/13 04:28:30;;;;;;;;;;;11.00;99.90;;;;;;4968319;28;19934;-77
2023/05/13 04:30:59;;;;;;;;;;;11.00;99.90;;;;;;4970561;28;20037;-77
2023/05/13 04:33:26;;;;;;;;;;;11.00;99.90;;;;;;4971382;28;19926;-77
2023/05/13 04:35:53;;;;;;;;;;;11.00;99.90;;;;;;4966897;28;20019;-76
2023/05/13 04:38:20;;;;;;;;;;;11.00;99.90;;;;;;4968570;28;19930;-77
2023/05/13 04:40:47;;;;;;;;;;;11.00;99.90;;;;;;4971399;28;19930;-77
2023/05/13 04:43:17;;;;;;;;;;;11.00;99.90;;;;;;4966506;28;19925;-75
2023/05/13 04:45:51;;;;;;;;;;;11.00;99.90;;;;;;4969394;28;19932;-77
2023/05/13 04:48:19;;;;;;;;;;;11.00;99.90;;;;;;4970489;28;19925;-76
2023/05/13 04:50:47;;;;;;;;;;;11.00;99.90;;;;;;4987342;28;19933;-76
2023/05/13 04:53:15;;;;;;;;;;;11.00;99.90;;;;;;4967885;28;19933;-76
2023/05/13 04:55:42;;;;;;;;;;;11.00;99.90;;;;;;4969579;28;19946;-76
2023/05/13 04:58:08;;;;;;;;;;;11.00;99.90;;;;;;4972722;28;20411;-76
2023/05/13 05:00:36;;;;;;;;;;;11.00;99.90;;;;;;4972308;28;19940;-76
2023/05/13 05:03:03;;;;;;;;;;;10.90;99.90;;;;;;4985160;28;20316;-76
2023/05/13 05:05:31;;;;;;;;;;;11.00;99.90;;;;;;4970714;28;19930;-76
2023/05/13 05:07:58;;;;;;;;;;;10.90;99.90;;;;;;4968241;28;19929;-75
2023/05/13 05:10:25;;;;;;;;;;;10.90;99.90;;;;;;4969637;28;19956;-76
2023/05/13 05:12:57;;;;;;;;;;;10.90;99.90;;;;;;4985352;28;20384;-77
2023/05/13 05:15:24;;;;;;;;;;;10.90;99.90;;;;;;4969851;28;19969;-77
2023/05/13 05:17:55;;;;;;;;;;;10.90;99.90;;;;;;4965520;28;19930;-76
2023/05/13 05:20:23;;;;;;;;;;;10.90;99.90;;;;;;4979909;28;20040;-76
2023/05/13 05:22:53;;;;;;;;;;;10.90;99.90;;;;;;4967153;28;19930;-77
2023/05/13 05:25:23;;;;;;;;;;;10.90;99.90;;;;;;4970094;28;19929;-77
2023/05/13 05:27:50;;;;;;;;;;;10.90;99.90;;;;;;4970378;28;20678;-76
2023/05/13 05:30:17;;;;;;;;;;;10.90;99.90;;;;;;4962932;28;19935;-76
2023/05/13 05:32:48;;;;;;;;;;;10.90;99.90;;;;;;4986116;28;19925;-77
2023/05/13 05:35:18;;;;;;;;;;;10.90;99.90;;;;;;4964760;28;20406;-76
2023/05/13 05:37:45;;;;;;;;;;;10.90;99.90;;;;;;4986338;28;19969;-77
2023/05/13 05:40:13;;;;;;;;;;;10.90;99.90;;;;;;4976562;28;19930;-77
2023/05/13 05:42:40;;;;;;;;;;;10.90;99.90;;;;;;4969955;28;19933;-76
2023/05/13 05:45:09;;;;;;;;;;;10.90;99.90;;;;;;4966431;28;20012;-76
2023/05/13 05:47:36;;;;;;;;;;;10.90;99.90;;;;;;4966143;28;19988;-76
2023/05/13 05:50:04;;;;;;;;;;;10.90;99.90;;;;;;4973474;28;19926;-76
2023/05/13 05:52:31;;;;;;;;;;;10.90;99.90;;;;;;4982807;28;19992;-75
2023/05/13 05:54:58;;;;;;;;;;;10.90;99.90;;;;;;4968352;28;20484;-77
2023/05/13 05:57:26;;;;;;;;;;;10.80;99.90;;;;;;4985223;28;19926;-76
2023/05/13 05:59:53;;;;;;;;;;;10.80;99.90;;;;;;4985195;28;20388;-77
2023/05/13 06:02:20;;;;;;;;;;;10.80;99.90;;;;;;4966503;28;19932;-76
2023/05/13 06:04:47;;;;;;;;;;;10.80;99.90;;;;;;4952764;28;20454;-77
2023/05/13 06:07:15;;;;;;;;;;;10.80;99.90;;;;;;4970735;28;19933;-76
2023/05/13 06:09:42;;;;;;;;;;;10.80;99.90;;;;;;4972570;28;19929;-77
2023/05/13 06:12:09;;;;;;;;;;;10.80;99.90;;;;;;4975021;28;19929;-75
2023/05/13 06:14:37;;;;;;;;;;;10.80;99.90;;;;;;4982667;28;19973;-76
2023/05/13 06:17:04;;;;;;;;;;;10.80;99.90;;;;;;4982792;28;19926;-76
2023/05/13 06:19:31;;;;;;;;;;;10.80;99.90;;;;;;4985089;28;19969;-77
2023/05/13 06:21:58;;;;;;;;;;;10.80;99.90;;;;;;4970742;28;19973;-77
2023/05/13 06:24:25;;;;;;;;;;;10.80;99.90;;;;;;4968597;28;19953;-77
2023/05/13 06:26:54;;;;;;;;;;;10.80;99.90;;;;;;4967094;28;20024;-75
2023/05/13 06:29:21;;;;;;;;;;;10.80;99.90;;;;;;4983892;28;19940;-77
2023/05/13 06:31:49;;;;;;;;;;;10.80;99.90;;;;;;4991723;28;19956;-77
2023/05/13 06:34:16;;;;;;;;;;;10.80;99.90;;;;;;4971525;28;19930;-77
2023/05/13 06:36:45;;;;;;;;;;;10.80;99.90;;;;;;4964865;28;20420;-77
2023/05/13 06:39:12;;;;;;;;;;;10.80;99.90;;;;;;4990027;28;20424;-76
2023/05/13 06:41:40;;;;;;;;;;;10.80;99.90;;;;;;4972772;28;19933;-77
2023/05/13 06:44:12;;;;;;;;;;;10.80;99.90;;;;;;4976497;28;19972;-76
2023/05/13 06:46:40;;;;;;;;;;;10.80;99.90;;;;;;4972335;28;20251;-77
2023/05/13 06:49:08;;;;;;;;;;;10.80;99.90;;;;;;4974971;28;19940;-77
2023/05/13 06:51:35;;;;;;;;;;;10.80;99.90;;;;;;4988066;28;19985;-77
2023/05/13 06:54:02;;;;;;;;;;;10.80;99.90;;;;;;4983939;28;21171;-77
2023/05/13 06:56:29;;;;;;;;;;;10.80;99.90;;;;;;4976750;28;20281;-77
2023/05/13 06:58:56;;;;;;;;;;;10.80;99.90;;;;;;4985533;28;20012;-77
2023/05/13 07:01:23;;;;;;;;;;;10.80;99.90;;;;;;4985820;28;19969;-77
2023/05/13 07:03:49;;;;;;;;;;;10.80;99.90;;;;;;4978919;28;20276;-77
2023/05/13 07:06:18;;;;;;;;;;;10.80;99.90;;;;;;4980879;28;20440;-76
2023/05/13 07:08:45;;;;;;;;;;;10.80;99.90;;;;;;4966702;28;19934;-75
2023/05/13 07:11:12;;;;;;;;;;;10.80;99.90;;;;;;4964528;28;19925;-77
2023/05/13 07:13:38;;;;;;;;;;;10.70;99.90;;;;;;4987201;28;20393;-77
2023/05/13 07:16:05;;;;;;;;;;;10.80;99.90;;;;;;4990217;28;19941;-77
2023/05/13 07:18:35;;;;;;;;;;;10.80;99.90;;;;;;4981903;28;19926;-78
2023/05/13 07:21:02;;;;;;;;;;;10.80;99.90;;;;;;4991233;28;19929;-77
2023/05/13 07:23:31;;;;;;;;;;;10.80;99.90;;;;;;4983286;28;19930;-76
2023/05/13 07:25:58;;;;;;;;;;;10.70;99.90;;;;;;4984818;28;20308;-76
2023/05/13 07:28:25;;;;;;;;;;;10.80;99.90;;;;;;4981729;28;19930;-77
2023/05/13 07:30:52;;;;;;;;;;;10.80;99.90;;;;;;4979635;28;20393;-76
2023/05/13 07:33:19;;;;;;;;;;;10.80;99.90;;;;;;4972840;28;20372;-77
2023/05/13 07:35:46;;;;;;;;;;;10.70;99.90;;;;;;4989111;28;20450;-76
2023/05/13 07:38:13;;;;;;;;;;;10.80;99.90;;;;;;4981985;28;19926;-77
2023/05/13 07:40:41;;;;;;;;;;;10.80;99.90;;;;;;4984942;28;19930;-76
2023/05/13 07:43:08;;;;;;;;;;;10.70;99.90;;;;;;4988590;28;20032;-76
2023/05/13 07:45:35;;;;;;;;;;;10.70;99.90;;;;;;4967976;28;19925;-77
2023/05/13 07:48:02;;;;;;;;;;;10.70;99.90;;;;;;4967446;28;19984;-76
2023/05/13 07:50:29;;;;;;;;;;;10.70;99.90;;;;;;4979838;28;19933;-76
2023/05/13 07:52:56;;;;;;;;;;;10.80;99.90;;;;;;4979695;28;20028;-76
2023/05/13 07:55:23;;;;;;;;;;;10.80;99.90;;;;;;4975604;28;19947;-76
2023/05/13 07:57:51;;;;;;;;;;;10.80;99.90;;;;;;4980693;28;19926;-76
2023/05/13 08:00:18;;;;;;;;;;;10.80;99.90;;;;;;4969855;28;19926;-76
2023/05/13 08:02:45;;;;;;;;;;;10.70;99.90;;;;;;4987123;28;19992;-75
2023/05/13 08:05:12;;;;;;;;;;;10.80;99.90;;;;;;4984332;28;19925;-76
2023/05/13 08:07:38;;;;;;;;;;;10.80;99.90;;;;;;4984726;28;19926;-75
2023/05/13 08:10:06;;;;;;;;;;;10.70;99.90;;;;;;4985683;28;20361;-76
2023/05/13 08:12:33;;;;;;;;;;;10.80;99.90;;;;;;4982464;28;19934;-75
2023/05/13 08:15:02;;;;;;;;;;;10.70;99.90;;;;;;4968223;28;19926;-76
2023/05/13 08:17:29;;;;;;;;;;;10.80;99.90;;;;;;4985083;28;20392;-74
2023/05/13 08:19:56;;;;;;;;;;;10.80;99.90;;;;;;4984412;28;19930;-76
2023/05/13 08:22:23;;;;;;;;;;;10.80;99.90;;;;;;4970690;28;19925;-75
2023/05/13 08:24:50;;;;;;;;;;;10.80;99.90;;;;;;4964208;28;20460;-75
2023/05/13 08:27:17;;;;;;;;;;;10.70;99.90;;;;;;4986665;28;19926;-74
2023/05/13 08:29:43;;;;;;;;;;;10.80;99.90;;;;;;4985270;28;20388;-75
2023/05/13 08:32:12;;;;;;;;;;;10.80;99.90;;;;;;4973735;28;19976;-76
2023/05/13 08:34:38;;;;;;;;;;;10.70;99.90;;;;;;4983238;28;19925;-75
2023/05/13 08:37:05;;;;;;;;;;;10.80;99.90;;;;;;4970652;28;19949;-75
2023/05/13 08:39:33;;;;;;;;;;;10.80;99.90;;;;;;4986598;28;19936;-75
2023/05/13 08:42:01;;;;;;;;;;;10.80;99.90;;;;;;4987797;28;19972;-75
2023/05/13 08:44:28;;;;;;;;;;;10.80;99.90;;;;;;4983327;28;19926;-76
2023/05/13 08:47:00;;;;;;;;;;;10.80;99.90;;;;;;4986798;28;19976;-74
2023/05/13 08:49:28;;;;;;;;;;;10.80;99.90;;;;;;4986233;28;19973;-75
2023/05/13 08:51:55;;;;;;;;;;;10.80;99.90;;;;;;4964484;28;19976;-75
2023/05/13 08:54:22;;;;;;;;;;;10.80;99.90;;;;;;4970681;28;19928;-75
2023/05/13 08:56:50;;;;;;;;;;;10.80;99.90;;;;;;4987068;28;19981;-75
2023/05/13 08:59:16;;;;;;;;;;;10.80;99.90;;;;;;4985677;28;19926;-76
2023/05/13 09:01:44;;;;;;;;;;;10.80;99.90;;;;;;4982821;28;19947;-76
2023/05/13 09:04:11;;;;;;;;;;;10.80;99.90;;;;;;4969498;28;19933;-75
2023/05/13 09:06:39;;;;;;;;;;;10.80;99.90;;;;;;4988303;28;19929;-74
2023/05/13 09:09:06;;;;;;;;;;;10.80;99.90;;;;;;4986683;28;19930;-74
2023/05/13 09:11:33;;;;;;;;;;;10.80;99.90;;;;;;4984252;28;19969;-75
2023/05/13 09:14:01;;;;;;;;;;;10.80;99.90;;;;;;4987010;28;19933;-75
2023/05/13 09:16:28;;;;;;;;;;;10.80;99.90;;;;;;4986739;28;19961;-75
2023/05/13 09:18:56;;;;;;;;;;;10.80;99.90;;;;;;4983710;28;20360;-75
2023/05/13 09:21:24;;;;;;;;;;;10.80;99.90;;;;;;4985924;28;20285;-75
2023/05/13 09:23:55;;;;;;;;;;;10.80;99.90;;;;;;4985071;28;19929;-75
2023/05/13 09:26:28;;;;;;;;;;;10.80;99.90;;;;;;4986548;28;19929;-76
2023/05/13 09:29:10;;;;;;;;;;;10.80;99.90;;;;;;4983896;28;20130;-75
2023/05/13 09:31:37;;;;;;;;;;;10.80;99.90;;;;;;4985125;28;19933;-75
2023/05/13 09:34:04;;;;;;;;;;;10.80;99.90;;;;;;4985633;28;20325;-75
2023/05/13 09:36:32;;;;;;;;;;;10.80;99.90;;;;;;4981467;28;19977;-74
2023/05/13 09:39:00;;;;;;;;;;;10.80;99.90;;;;;;4987392;28;19945;-75
2023/05/13 09:41:27;;;;;;;;;;;10.80;99.90;;;;;;4985116;28;19926;-75
2023/05/13 09:43:54;;;;;;;;;;;10.80;99.90;;;;;;4986325;28;19926;-75
2023/05/13 09:46:21;;;;;;;;;;;10.80;99.90;;;;;;4969756;28;20384;-74
2023/05/13 09:48:52;;;;;;;;;;;10.80;99.90;;;;;;4986700;28;19933;-75
2023/05/13 09:51:24;;;;;;;;;;;10.80;99.90;;;;;;4986729;28;19988;-75
2023/05/13 09:53:51;;;;;;;;;;;10.80;99.90;;;;;;4981410;28;19988;-75
2023/05/13 09:56:22;;;;;;;;;;;10.80;99.90;;;;;;4985254;28;20392;-75
2023/05/13 09:58:52;;;;;;;;;;;10.80;99.90;;;;;;4983456;28;19949;-75
2023/05/13 10:01:19;;;;;;;;;;;10.80;99.90;;;;;;4974229;28;20398;-75
2023/05/13 10:03:46;;;;;;;;;;;10.80;99.90;;;;;;4987108;28;20388;-75
2023/05/13 10:06:14;;;;;;;;;;;10.80;99.90;;;;;;4991192;28;19973;-76
2023/05/13 10:08:42;;;;;;;;;;;10.80;99.90;;;;;;4976148;28;19936;-76
2023/05/13 10:11:09;;;;;;;;;;;10.80;99.90;;;;;;4990078;28;20026;-74
2023/05/13 10:13:38;;;;;;;;;;;10.80;99.90;;;;;;4987421;28;20052;-75
2023/05/13 10:16:05;;;;;;;;;;;10.90;99.90;;;;;;4991029;28;19940;-76
2023/05/13 10:18:32;;;;;;;;;;;10.80;99.90;;;;;;4973354;28;19925;-75
2023/05/13 10:20:59;;;;;;;;;;;10.80;99.90;;;;;;4988363;28;19930;-75
2023/05/13 10:23:26;;;;;;;;;;;10.80;99.90;;;;;;4975249;28;19934;-75
2023/05/13 10:25:53;;;;;;;;;;;10.80;99.90;;;;;;4989802;28;19933;-75
2023/05/13 10:28:20;;;;;;;;;;;10.80;99.90;;;;;;4989306;28;19930;-75
2023/05/13 10:30:49;;;;;;;;;;;10.80;99.90;;;;;;4967918;28;19934;-75
2023/05/13 10:33:16;;;;;;;;;;;10.80;99.90;;;;;;4989989;28;20676;-75
2023/05/13 10:35:48;;;;;;;;;;;10.90;99.90;;;;;;4987927;28;20364;-75
2023/05/13 10:38:16;;;;;;;;;;;10.90;99.90;;;;;;4984582;28;20016;-75
2023/05/13 10:40:59;;;;;;;;;;;10.90;99.90;;;;;;4972936;28;19932;-76
2023/05/13 10:43:27;;;;;;;;;;;10.90;99.90;;;;;;4988732;28;19933;-75
2023/05/13 10:45:58;;;;;;;;;;;10.90;99.90;;;;;;4985233;28;19949;-75
2023/05/13 10:48:25;;;;;;;;;;;10.90;99.90;;;;;;4989874;28;19956;-75
2023/05/13 10:50:53;;;;;;;;;;;10.90;99.90;;;;;;4989051;28;20315;-76
2023/05/13 10:53:21;;;;;;;;;;;10.90;99.90;;;;;;4986750;28;20017;-75
2023/05/13 10:55:52;;;;;;;;;;;10.90;99.90;;;;;;4986305;28;20396;-76
2023/05/13 10:58:21;;;;;;;;;;;10.90;99.90;;;;;;4971831;28;20025;-75
2023/05/13 11:00:48;;;;;;;;;;;10.90;99.90;;;;;;4990219;28;19948;-74
2023/05/13 11:03:27;;;;;;;;;;;10.90;99.90;;;;;;4990378;28;19952;-75
2023/05/13 11:06:04;;;;;;;;;;;10.90;99.90;;;;;;4967943;28;20582;-75
2023/05/13 11:08:37;;;;;;;;;;;10.80;99.90;;;;;;4989992;28;20360;-75
2023/05/13 11:11:17;;;;;;;;;;;10.90;99.90;;;;;;4973674;28;19970;-75
2023/05/13 11:13:44;;;;;;;;;;;10.90;99.90;;;;;;4988260;28;20292;-76
2023/05/13 11:16:12;;;;;;;;;;;10.90;99.90;;;;;;4987312;28;20300;-76
2023/05/13 11:18:40;;;;;;;;;;;10.90;99.90;;;;;;4973086;28;20416;-75
2023/05/13 11:21:08;;;;;;;;;;;10.90;99.90;;;;;;4989243;28;19969;-74
2023/05/13 11:23:50;;;;;;;;;;;10.90;99.90;;;;;;4984515;28;20345;-76
2023/05/13 11:26:17;;;;;;;;;;;10.90;99.90;;;;;;4988461;28;19934;-76
2023/05/13 11:28:58;;;;;;;;;;;10.90;99.90;;;;;;4972533;28;20303;-75
2023/05/13 11:31:26;;;;;;;;;;;10.90;99.90;;;;;;4983592;28;19925;-75
2023/05/13 11:34:08;;;;;;;;;;;10.90;99.90;;;;;;4989747;28;20013;-75
2023/05/13 11:36:36;;;;;;;;;;;10.90;99.90;;;;;;4982955;28;20651;-76
2023/05/13 11:39:13;;;;;;;;;;;10.90;99.90;;;;;;4990162;28;19926;-76
2023/05/13 11:41:41;;;;;;;;;;;11.00;99.90;;;;;;4989604;28;19926;-76
2023/05/13 11:44:09;;;;;;;;;;;11.00;99.90;;;;;;4986776;28;20374;-76
2023/05/13 11:46:38;;;;;;;;;;;11.00;99.90;;;;;;4989822;28;20446;-73
2023/05/13 11:49:05;;;;;;;;;;;11.00;99.90;;;;;;4990999;28;19933;-76
2023/05/13 11:51:33;;;;;;;;;;;11.00;99.90;;;;;;4985414;28;19929;-78
2023/05/13 11:54:01;;;;;;;;;;;11.00;99.90;;;;;;4989857;28;19926;-74
2023/05/13 11:56:28;;;;;;;;;;;11.00;99.90;;;;;;4989638;28;19936;-75
2023/05/13 11:58:55;;;;;;;;;;;11.00;99.90;;;;;;4980845;28;19926;-76
2023/05/13 12:01:23;;;;;;;;;;;11.00;99.90;;;;;;4980967;28;19965;-76
2023/05/13 12:03:50;;;;;;;;;;;11.00;99.90;;;;;;4985641;28;19948;-76
2023/05/13 12:06:20;;;;;;;;;;;11.00;99.90;;;;;;4986229;28;20010;-75
2023/05/13 12:08:49;;;;;;;;;;;11.00;99.90;;;;;;4993301;28;19933;-77
2023/05/13 12:11:15;;;;;;;;;;;11.00;99.90;;;;;;4973883;28;19930;-75
2023/05/13 12:13:42;;;;;;;;;;;11.00;99.90;;;;;;4992310;28;19940;-77
2023/05/13 12:16:09;;;;;;;;;;;11.00;99.90;;;;;;4985939;28;19969;-77
2023/05/13 12:18:37;;;;;;;;;;;11.10;99.90;;;;;;4985610;28;19956;-75
2023/05/13 12:21:14;;;;;;;;;;;11.10;99.90;;;;;;4982816;28;19926;-75
2023/05/13 12:23:41;;;;;;;;;;;11.00;99.90;;;;;;4981053;28;20321;-76
2023/05/13 12:26:09;;;;;;;;;;;11.10;99.90;;;;;;4982958;28;20388;-74
2023/05/13 12:28:36;;;;;;;;;;;11.10;99.90;;;;;;4984250;28;19941;-77
2023/05/13 12:31:04;;;;;;;;;;;11.10;99.90;;;;;;4986052;28;19937;-74
2023/05/13 12:33:32;;;;;;;;;;;11.10;99.90;;;;;;4961615;28;20050;-73
2023/05/13 12:36:13;;;;;;;;;;;11.10;99.90;;;;;;4987900;28;19949;-77
2023/05/13 12:38:40;;;;;;;;;;;11.10;99.90;;;;;;4987895;28;19929;-76
2023/05/13 12:41:12;;;;;;;;;;;11.10;99.90;;;;;;4981759;28;19926;-76
2023/05/13 12:43:41;;;;;;;;;;;11.10;99.90;;;;;;4984433;28;19926;-75
2023/05/13 12:46:08;;;;;;;;;;;11.10;99.90;;;;;;4984503;28;19973;-78
2023/05/13 12:48:35;;;;;;;;;;;11.10;99.90;;;;;;4980578;28;20415;-77
2023/05/13 12:51:02;;;;;;;;;;;11.10;99.90;;;;;;4982302;28;19926;-75
2023/05/13 12:53:28;;;;;;;;;;;11.10;99.90;;;;;;4980421;28;21010;-76
2023/05/13 12:55:55;;;;;;;;;;;11.10;99.90;;;;;;4985145;28;20045;-74
2023/05/13 12:58:24;;;;;;;;;;;11.10;99.90;;;;;;4982619;28;19930;-75
2023/05/13 13:00:51;;;;;;;;;;;11.10;99.90;;;;;;4983036;28;19995;-75
2023/05/13 13:03:18;;;;;;;;;;;11.20;99.90;;;;;;4980503;28;20462;-75
2023/05/13 13:05:45;;;;;;;;;;;11.10;99.90;;;;;;4984391;28;19937;-75
2023/05/13 13:08:12;;;;;;;;;;;11.10;99.90;;;;;;4983271;28;19932;-75
2023/05/13 13:10:41;;;;;;;;;;;11.20;99.90;;;;;;4978437;28;20198;-76
2023/05/13 13:13:08;;;;;;;;;;;11.20;99.90;;;;;;4983719;28;20408;-75
2023/05/13 13:15:36;;;;;;;;;;;11.20;99.90;;;;;;4967546;28;19969;-75
2023/05/13 13:18:03;;;;;;;;;;;11.20;99.90;;;;;;4983526;28;20004;-75
2023/05/13 13:20:30;;;;;;;;;;;11.20;99.90;;;;;;4981876;28;19961;-75
2023/05/13 13:22:58;;;;;;;;;;;11.20;99.90;;;;;;4973005;28;20392;-77
2023/05/13 13:25:27;;;;;;;;;;;11.20;99.90;;;;;;4966326;28;19929;-76
2023/05/13 13:27:54;;;;;;;;;;;11.20;99.90;;;;;;4981332;28;19934;-76
2023/05/13 13:30:21;;;;;;;;;;;11.20;99.90;;;;;;4981165;28;19926;-76
2023/05/13 13:32:49;;;;;;;;;;;11.30;99.90;;;;;;4979456;28;19937;-76
2023/05/13 13:35:16;;;;;;;;;;;11.30;99.90;;;;;;4985365;28;20009;-76
2023/05/13 13:37:43;;;;;;;;;;;11.30;99.90;;;;;;4983810;28;19992;-76
2023/05/13 13:40:11;;;;;;;;;;;11.30;99.90;;;;;;4981180;28;19929;-77
2023/05/13 13:42:38;;;;;;;;;;;11.20;99.90;;;;;;4986031;28;19925;-76
2023/05/13 13:45:05;;;;;;;;;;;11.30;99.90;;;;;;4984449;28;19936;-77
2023/05/13 13:47:32;;;;;;;;;;;11.30;99.90;;;;;;4966377;28;19930;-77
2023/05/13 13:50:00;;;;;;;;;;;11.30;99.90;;;;;;4960587;28;19930;-76
2023/05/13 13:52:30;;;;;;;;;;;11.30;99.90;;;;;;4972842;28;20576;-77
2023/05/13 13:54:57;;;;;;;;;;;11.30;99.90;;;;;;4981786;28;19925;-75
2023/05/13 13:57:24;;;;;;;;;;;11.30;99.90;;;;;;4975570;28;19933;-77
2023/05/13 13:59:52;;;;;;;;;;;11.30;99.90;;;;;;4979314;28;19933;-76
2023/05/13 14:02:18;;;;;;;;;;;11.40;99.90;;;;;;4981253;28;20437;-76
2023/05/13 14:04:46;;;;;;;;;;;11.30;99.90;;;;;;4980902;28;19957;-77
2023/05/13 14:07:17;;;;;;;;;;;11.40;99.90;;;;;;4958839;28;19926;-75
2023/05/13 14:09:44;;;;;;;;;;;11.40;99.90;;;;;;4983623;28;20423;-79
2023/05/13 14:12:10;;;;;;;;;;;11.40;99.90;;;;;;4962468;28;19963;-79
2023/05/13 14:14:37;;;;;;;;;;;11.40;99.90;;;;;;4969019;28;20564;-81
2023/05/13 14:17:07;;;;;;;;;;;11.40;99.90;;;;;;4983385;28;19937;-80
2023/05/13 14:19:34;;;;;;;;;;;11.40;99.90;;;;;;4983678;28;20487;-80